sensor_id;sensor_type;location;lat;lon;timestamp;temperature;humidity
13074;DHT22;6603;47.066;15.396;2022-08-14T00:02:04;15.20;99.90
13074;DHT22;6603;47.066;15.396;2022-08-14T00:04:34;15.20;99.90
13074;DHT22;6603;47.066;15.396;2022-08-14T00:07:01;15.30;99.90
13074;DHT22;6603;47.066;15.396;2022-08-14T00:09:26;15.30;99.90
13074;DHT22;6603;47.066;15.396;2022-08-14T00:11:53;15.20;99.90
13074;DHT22;6603;47.066;15.396;2022-08-14T00:14:20;14.90;99.90
13074;DHT22;6603;47.066;15.396;2022-08-14T00:16:46;15.00;99.90
13074;DHT22;6603;47.066;15.396;2022-08-14T00:19:13;14.80;99.90
13074;DHT22;6603;47.066;15.396;2022-08-14T00:21:39;15.00;99.90
13074;DHT22;6603;47.066;15.396;2022-08-14T00:24:04;14.80;99.90
13074;DHT22;6603;47.066;15.396;2022-08-14T00:26:30;14.90;99.90
13074;DHT22;6603;47.066;15.396;2022-08-14T00:28:56;14.90;99.90
13074;DHT22;6603;47.066;15.396;2022-08-14T00:31:22;14.90;99.90
13074;DHT22;6603;47.066;15.396;2022-08-14T00:33:48;15.00;99.90
13074;DHT22;6603;47.066;15.396;2022-08-14T00:36:15;14.80;99.90
13074;DHT22;6603;47.066;15.396;2022-08-14T00:38:40;14.80;99.90
13074;DHT22;6603;47.066;15.396;2022-08-14T00:41:07;14.70;99.90
13074;DHT22;6603;47.066;15.396;2022-08-14T00:43:35;15.00;99.90
13074;DHT22;6603;47.066;15.396;2022-08-14T00:46:09;14.90;99.90
13074;DHT22;6603;47.066;15.396;2022-08-14T00:48:37;14.70;99.90
13074;DHT22;6603;47.066;15.396;2022-08-14T00:51:05;14.70;99.90
13074;DHT22;6603;47.066;15.396;2022-08-14T00:53:32;14.90;99.90
13074;DHT22;6603;47.066;15.396;2022-08-14T00:55:58;14.90;99.90
13074;DHT22;6603;47.066;15.396;2022-08-14T00:58:24;14.90;99.90
13074;DHT22;6603;47.066;15.396;2022-08-14T01:01:00;14.70;99.90
13074;DHT22;6603;47.066;15.396;2022-08-14T01:03:27;14.70;99.90
13074;DHT22;6603;47.066;15.396;2022-08-14T01:05:55;14.60;99.90
13074;DHT22;6603;47.066;15.396;2022-08-14T01:08:29;14.60;99.90
13074;DHT22;6603;47.066;15.396;2022-08-14T01:10:57;14.50;99.90
13074;DHT22;6603;47.066;15.396;2022-08-14T01:13:24;14.50;99.90
13074;DHT22;6603;47.066;15.396;2022-08-14T01:15:54;14.50;99.90
13074;DHT22;6603;47.066;15.396;2022-08-14T01:18:22;14.50;99.90
13074;DHT22;6603;47.066;15.396;2022-08-14T01:21:08;14.40;99.90
13074;DHT22;6603;47.066;15.396;2022-08-14T01:23:42;14.40;99.90
13074;DHT22;6603;47.066;15.396;2022-08-14T01:26:09;14.40;99.90
13074;DHT22;6603;47.066;15.396;2022-08-14T01:28:38;14.40;99.90
13074;DHT22;6603;47.066;15.396;2022-08-14T01:31:10;14.30;99.90
13074;DHT22;6603;47.066;15.396;2022-08-14T01:33:38;14.40;99.90
13074;DHT22;6603;47.066;15.396;2022-08-14T01:36:09;14.40;99.90
13074;DHT22;6603;47.066;15.396;2022-08-14T01:38:37;14.30;99.90
13074;DHT22;6603;47.066;15.396;2022-08-14T01:41:07;14.40;99.90
13074;DHT22;6603;47.066;15.396;2022-08-14T01:43:47;14.30;99.90
13074;DHT22;6603;47.066;15.396;2022-08-14T01:46:17;14.40;99.90
13074;DHT22;6603;47.066;15.396;2022-08-14T01:48:44;14.30;99.90
13074;DHT22;6603;47.066;15.396;2022-08-14T01:51:16;14.10;99.90
13074;DHT22;6603;47.066;15.396;2022-08-14T01:54:09;14.20;99.90
13074;DHT22;6603;47.066;15.396;2022-08-14T01:56:35;14.30;99.90
13074;DHT22;6603;47.066;15.396;2022-08-14T01:59:27;14.40;99.90
13074;DHT22;6603;47.066;15.396;2022-08-14T02:01:56;14.20;99.90
13074;DHT22;6603;47.066;15.396;2022-08-14T02:04:26;14.10;99.90
13074;DHT22;6603;47.066;15.396;2022-08-14T02:06:52;14.20;99.90
13074;DHT22;6603;47.066;15.396;2022-08-14T02:09:19;14.00;99.90
13074;DHT22;6603;47.066;15.396;2022-08-14T02:11:47;14.20;99.90
13074;DHT22;6603;47.066;15.396;2022-08-14T02:14:13;14.00;99.90
13074;DHT22;6603;47.066;15.396;2022-08-14T02:16:46;14.00;99.90
13074;DHT22;6603;47.066;15.396;2022-08-14T02:19:20;14.10;99.90
13074;DHT22;6603;47.066;15.396;2022-08-14T02:21:48;14.30;99.90
13074;DHT22;6603;47.066;15.396;2022-08-14T02:24:14;14.20;99.90
13074;DHT22;6603;47.066;15.396;2022-08-14T02:26:43;14.10;99.90
13074;DHT22;6603;47.066;15.396;2022-08-14T02:29:17;14.10;99.90
13074;DHT22;6603;47.066;15.396;2022-08-14T02:31:45;14.00;99.90
13074;DHT22;6603;47.066;15.396;2022-08-14T02:34:23;13.90;99.90
13074;DHT22;6603;47.066;15.396;2022-08-14T02:39:18;13.80;99.90
13074;DHT22;6603;47.066;15.396;2022-08-14T02:41:45;14.10;99.90
13074;DHT22;6603;47.066;15.396;2022-08-14T02:44:16;13.70;99.90
13074;DHT22;6603;47.066;15.396;2022-08-14T02:46:46;14.00;99.90
13074;DHT22;6603;47.066;15.396;2022-08-14T02:49:12;13.80;99.90
13074;DHT22;6603;47.066;15.396;2022-08-14T02:51:39;13.80;99.90
13074;DHT22;6603;47.066;15.396;2022-08-14T02:54:07;13.60;99.90
13074;DHT22;6603;47.066;15.396;2022-08-14T02:56:35;13.60;99.90
13074;DHT22;6603;47.066;15.396;2022-08-14T02:59:04;13.70;99.90
13074;DHT22;6603;47.066;15.396;2022-08-14T03:01:32;13.60;99.90
13074;DHT22;6603;47.066;15.396;2022-08-14T03:03:58;13.90;99.90
13074;DHT22;6603;47.066;15.396;2022-08-14T03:06:24;14.00;99.90
13074;DHT22;6603;47.066;15.396;2022-08-14T03:08:52;13.90;99.90
13074;DHT22;6603;47.066;15.396;2022-08-14T03:11:18;13.80;99.90
13074;DHT22;6603;47.066;15.396;2022-08-14T03:13:46;13.60;99.90
13074;DHT22;6603;47.066;15.396;2022-08-14T03:16:16;13.70;99.90
13074;DHT22;6603;47.066;15.396;2022-08-14T03:18:43;13.60;99.90
13074;DHT22;6603;47.066;15.396;2022-08-14T03:21:16;13.70;99.90
13074;DHT22;6603;47.066;15.396;2022-08-14T03:23:46;13.60;99.90
13074;DHT22;6603;47.066;15.396;2022-08-14T03:26:15;13.60;99.90
13074;DHT22;6603;47.066;15.396;2022-08-14T03:28:43;13.50;99.90
13074;DHT22;6603;47.066;15.396;2022-08-14T03:31:10;13.40;99.90
13074;DHT22;6603;47.066;15.396;2022-08-14T03:33:37;13.40;99.90
13074;DHT22;6603;47.066;15.396;2022-08-14T03:36:10;13.40;99.90
13074;DHT22;6603;47.066;15.396;2022-08-14T03:38:38;13.60;99.90
13074;DHT22;6603;47.066;15.396;2022-08-14T03:41:21;13.50;99.90
13074;DHT22;6603;47.066;15.396;2022-08-14T03:43:56;13.40;99.90
13074;DHT22;6603;47.066;15.396;2022-08-14T03:46:24;13.50;99.90
13074;DHT22;6603;47.066;15.396;2022-08-14T03:48:53;13.50;99.90
13074;DHT22;6603;47.066;15.396;2022-08-14T03:51:21;13.80;99.90
13074;DHT22;6603;47.066;15.396;2022-08-14T03:53:47;13.70;99.90
13074;DHT22;6603;47.066;15.396;2022-08-14T03:56:15;13.60;99.90
13074;DHT22;6603;47.066;15.396;2022-08-14T03:58:44;13.50;99.90
13074;DHT22;6603;47.066;15.396;2022-08-14T04:01:12;13.40;99.90
13074;DHT22;6603;47.066;15.396;2022-08-14T04:03:38;13.50;99.90
13074;DHT22;6603;47.066;15.396;2022-08-14T04:06:05;13.40;99.90
13074;DHT22;6603;47.066;15.396;2022-08-14T04:08:37;13.30;99.90
13074;DHT22;6603;47.066;15.396;2022-08-14T04:11:04;13.50;99.90
13074;DHT22;6603;47.066;15.396;2022-08-14T04:13:33;13.40;99.90
13074;DHT22;6603;47.066;15.396;2022-08-14T04:16:10;13.50;99.90
13074;DHT22;6603;47.066;15.396;2022-08-14T04:18:41;13.70;99.90
13074;DHT22;6603;47.066;15.396;2022-08-14T04:21:08;13.40;99.90
13074;DHT22;6603;47.066;15.396;2022-08-14T04:23:35;13.60;99.90
13074;DHT22;6603;47.066;15.396;2022-08-14T04:26:04;13.80;99.90
13074;DHT22;6603;47.066;15.396;2022-08-14T04:28:31;13.80;99.90
13074;DHT22;6603;47.066;15.396;2022-08-14T04:30:56;13.60;99.90
13074;DHT22;6603;47.066;15.396;2022-08-14T04:33:22;13.80;99.90
13074;DHT22;6603;47.066;15.396;2022-08-14T04:35:49;13.70;99.90
13074;DHT22;6603;47.066;15.396;2022-08-14T04:38:16;13.60;99.90
13074;DHT22;6603;47.066;15.396;2022-08-14T04:41:01;13.70;99.90
13074;DHT22;6603;47.066;15.396;2022-08-14T04:43:45;13.70;99.90
13074;DHT22;6603;47.066;15.396;2022-08-14T04:46:15;13.80;99.90
13074;DHT22;6603;47.066;15.396;2022-08-14T04:48:41;13.90;99.90
13074;DHT22;6603;47.066;15.396;2022-08-14T04:51:15;14.20;99.90
13074;DHT22;6603;47.066;15.396;2022-08-14T04:53:45;14.40;99.90
13074;DHT22;6603;47.066;15.396;2022-08-14T04:56:13;14.50;99.90
13074;DHT22;6603;47.066;15.396;2022-08-14T04:58:42;14.60;99.90
13074;DHT22;6603;47.066;15.396;2022-08-14T05:01:10;14.70;99.90
13074;DHT22;6603;47.066;15.396;2022-08-14T05:03:37;14.90;99.90
13074;DHT22;6603;47.066;15.396;2022-08-14T05:06:09;14.80;99.90
13074;DHT22;6603;47.066;15.396;2022-08-14T05:08:36;14.70;99.90
13074;DHT22;6603;47.066;15.396;2022-08-14T05:11:05;14.80;99.90
13074;DHT22;6603;47.066;15.396;2022-08-14T05:13:33;15.10;99.90
13074;DHT22;6603;47.066;15.396;2022-08-14T05:16:00;15.10;99.90
13074;DHT22;6603;47.066;15.396;2022-08-14T05:18:35;15.10;99.90
13074;DHT22;6603;47.066;15.396;2022-08-14T05:21:04;15.10;99.90
13074;DHT22;6603;47.066;15.396;2022-08-14T05:23:32;15.30;99.90
13074;DHT22;6603;47.066;15.396;2022-08-14T05:26:00;15.30;99.90
13074;DHT22;6603;47.066;15.396;2022-08-14T05:28:29;15.40;99.90
13074;DHT22;6603;47.066;15.396;2022-08-14T05:30:57;15.60;99.90
13074;DHT22;6603;47.066;15.396;2022-08-14T05:33:24;15.60;99.90
13074;DHT22;6603;47.066;15.396;2022-08-14T05:35:55;15.70;99.90
13074;DHT22;6603;47.066;15.396;2022-08-14T05:38:27;15.90;99.90
13074;DHT22;6603;47.066;15.396;2022-08-14T05:40:55;16.00;99.90
13074;DHT22;6603;47.066;15.396;2022-08-14T05:43:24;16.10;99.90
13074;DHT22;6603;47.066;15.396;2022-08-14T05:45:50;16.30;99.90
13074;DHT22;6603;47.066;15.396;2022-08-14T05:48:15;16.40;99.90
13074;DHT22;6603;47.066;15.396;2022-08-14T05:50:41;16.40;99.90
13074;DHT22;6603;47.066;15.396;2022-08-14T05:53:07;16.60;99.90
13074;DHT22;6603;47.066;15.396;2022-08-14T05:55:33;16.70;99.90
13074;DHT22;6603;47.066;15.396;2022-08-14T05:58:02;16.80;99.90
13074;DHT22;6603;47.066;15.396;2022-08-14T06:00:32;16.90;99.90
13074;DHT22;6603;47.066;15.396;2022-08-14T06:02:59;16.90;99.90
13074;DHT22;6603;47.066;15.396;2022-08-14T06:05:25;17.10;99.90
13074;DHT22;6603;47.066;15.396;2022-08-14T06:07:52;17.20;99.90
13074;DHT22;6603;47.066;15.396;2022-08-14T06:10:18;17.30;99.90
13074;DHT22;6603;47.066;15.396;2022-08-14T06:12:44;17.40;99.90
13074;DHT22;6603;47.066;15.396;2022-08-14T06:15:11;17.40;99.90
13074;DHT22;6603;47.066;15.396;2022-08-14T06:17:49;17.50;99.90
13074;DHT22;6603;47.066;15.396;2022-08-14T06:20:16;17.50;74.80
13074;DHT22;6603;47.066;15.396;2022-08-14T06:22:44;17.60;99.70
13074;DHT22;6603;47.066;15.396;2022-08-14T06:25:12;17.80;47.90
13074;DHT22;6603;47.066;15.396;2022-08-14T06:27:44;17.90;1.00
13074;DHT22;6603;47.066;15.396;2022-08-14T06:30:12;17.90;79.30
13074;DHT22;6603;47.066;15.396;2022-08-14T06:32:39;18.00;48.80
13074;DHT22;6603;47.066;15.396;2022-08-14T06:35:07;18.20;48.50
13074;DHT22;6603;47.066;15.396;2022-08-14T06:37:40;18.10;1.00
13074;DHT22;6603;47.066;15.396;2022-08-14T06:40:07;18.30;1.00
13074;DHT22;6603;47.066;15.396;2022-08-14T06:42:34;18.40;1.00
13074;DHT22;6603;47.066;15.396;2022-08-14T06:44:59;18.50;9.20
13074;DHT22;6603;47.066;15.396;2022-08-14T06:47:28;18.70;1.00
13074;DHT22;6603;47.066;15.396;2022-08-14T06:49:54;18.70;11.50
13074;DHT22;6603;47.066;15.396;2022-08-14T06:52:19;18.70;5.40
13074;DHT22;6603;47.066;15.396;2022-08-14T06:54:46;18.90;1.00
13074;DHT22;6603;47.066;15.396;2022-08-14T06:57:12;19.00;1.00
13074;DHT22;6603;47.066;15.396;2022-08-14T06:59:38;19.20;1.00
13074;DHT22;6603;47.066;15.396;2022-08-14T07:02:03;19.20;1.00
13074;DHT22;6603;47.066;15.396;2022-08-14T07:04:48;19.30;1.00
13074;DHT22;6603;47.066;15.396;2022-08-14T07:07:39;19.30;1.00
13074;DHT22;6603;47.066;15.396;2022-08-14T07:10:07;19.30;1.00
13074;DHT22;6603;47.066;15.396;2022-08-14T07:12:33;19.40;1.00
13074;DHT22;6603;47.066;15.396;2022-08-14T07:14:59;19.70;1.00
13074;DHT22;6603;47.066;15.396;2022-08-14T07:17:25;19.70;99.90
13074;DHT22;6603;47.066;15.396;2022-08-14T07:19:51;19.80;1.00
13074;DHT22;6603;47.066;15.396;2022-08-14T07:22:17;20.00;1.00
13074;DHT22;6603;47.066;15.396;2022-08-14T07:24:44;20.10;1.00
13074;DHT22;6603;47.066;15.396;2022-08-14T07:27:10;20.20;99.90
13074;DHT22;6603;47.066;15.396;2022-08-14T07:29:35;20.40;1.00
13074;DHT22;6603;47.066;15.396;2022-08-14T07:32:01;20.40;1.00
13074;DHT22;6603;47.066;15.396;2022-08-14T07:34:27;20.60;1.00
13074;DHT22;6603;47.066;15.396;2022-08-14T07:36:54;20.60;1.00
13074;DHT22;6603;47.066;15.396;2022-08-14T07:39:20;20.70;99.90
13074;DHT22;6603;47.066;15.396;2022-08-14T07:41:45;20.80;1.00
13074;DHT22;6603;47.066;15.396;2022-08-14T07:44:11;21.00;1.00
13074;DHT22;6603;47.066;15.396;2022-08-14T07:46:39;20.90;1.00
13074;DHT22;6603;47.066;15.396;2022-08-14T07:49:05;21.00;99.90
13074;DHT22;6603;47.066;15.396;2022-08-14T07:51:32;20.80;1.00
13074;DHT22;6603;47.066;15.396;2022-08-14T07:53:59;21.10;1.00
13074;DHT22;6603;47.066;15.396;2022-08-14T07:56:25;21.20;4.70
13074;DHT22;6603;47.066;15.396;2022-08-14T07:58:52;21.20;99.90
13074;DHT22;6603;47.066;15.396;2022-08-14T08:01:18;21.20;1.00
13074;DHT22;6603;47.066;15.396;2022-08-14T08:03:48;21.30;1.00
13074;DHT22;6603;47.066;15.396;2022-08-14T08:06:15;21.50;1.00
13074;DHT22;6603;47.066;15.396;2022-08-14T08:08:45;21.80;99.90
13074;DHT22;6603;47.066;15.396;2022-08-14T08:11:12;22.00;99.90
13074;DHT22;6603;47.066;15.396;2022-08-14T08:13:41;22.10;1.00
13074;DHT22;6603;47.066;15.396;2022-08-14T08:16:07;22.30;99.90
13074;DHT22;6603;47.066;15.396;2022-08-14T08:18:34;22.30;1.00
13074;DHT22;6603;47.066;15.396;2022-08-14T08:21:00;22.20;1.00
13074;DHT22;6603;47.066;15.396;2022-08-14T08:23:28;22.20;99.90
13074;DHT22;6603;47.066;15.396;2022-08-14T08:25:58;22.30;99.90
13074;DHT22;6603;47.066;15.396;2022-08-14T08:28:26;22.50;1.00
13074;DHT22;6603;47.066;15.396;2022-08-14T08:31:04;22.60;1.00
13074;DHT22;6603;47.066;15.396;2022-08-14T08:33:33;22.80;99.90
13074;DHT22;6603;47.066;15.396;2022-08-14T08:36:08;23.10;99.90
13074;DHT22;6603;47.066;15.396;2022-08-14T08:38:36;23.10;99.90
13074;DHT22;6603;47.066;15.396;2022-08-14T08:41:02;23.40;99.40
13074;DHT22;6603;47.066;15.396;2022-08-14T08:43:30;23.50;8.30
13074;DHT22;6603;47.066;15.396;2022-08-14T08:45:58;23.70;1.00
13074;DHT22;6603;47.066;15.396;2022-08-14T08:48:29;23.80;1.00
13074;DHT22;6603;47.066;15.396;2022-08-14T08:50:57;23.60;1.00
13074;DHT22;6603;47.066;15.396;2022-08-14T08:53:33;23.80;1.00
13074;DHT22;6603;47.066;15.396;2022-08-14T08:55:59;23.80;1.00
13074;DHT22;6603;47.066;15.396;2022-08-14T08:58:25;23.90;1.00
13074;DHT22;6603;47.066;15.396;2022-08-14T09:00:54;24.10;99.90
13074;DHT22;6603;47.066;15.396;2022-08-14T09:03:27;24.40;99.90
13074;DHT22;6603;47.066;15.396;2022-08-14T09:06:02;24.60;99.90
13074;DHT22;6603;47.066;15.396;2022-08-14T09:08:34;24.40;99.90
13074;DHT22;6603;47.066;15.396;2022-08-14T09:11:06;24.30;99.90
13074;DHT22;6603;47.066;15.396;2022-08-14T09:13:34;24.00;99.90
13074;DHT22;6603;47.066;15.396;2022-08-14T09:16:00;24.00;99.90
13074;DHT22;6603;47.066;15.396;2022-08-14T09:18:27;24.00;99.90
13074;DHT22;6603;47.066;15.396;2022-08-14T09:20:55;24.00;99.90
13074;DHT22;6603;47.066;15.396;2022-08-14T09:23:22;23.90;99.90
13074;DHT22;6603;47.066;15.396;2022-08-14T09:25:50;23.90;99.90
13074;DHT22;6603;47.066;15.396;2022-08-14T09:28:19;23.90;99.90
13074;DHT22;6603;47.066;15.396;2022-08-14T09:30:53;23.80;99.90
13074;DHT22;6603;47.066;15.396;2022-08-14T09:33:30;23.80;99.90
13074;DHT22;6603;47.066;15.396;2022-08-14T09:36:05;23.80;99.90
13074;DHT22;6603;47.066;15.396;2022-08-14T09:44:06;24.60;99.90
13074;DHT22;6603;47.066;15.396;2022-08-14T09:46:34;24.60;16.00
13074;DHT22;6603;47.066;15.396;2022-08-14T09:49:05;24.60;1.00
13074;DHT22;6603;47.066;15.396;2022-08-14T09:51:32;24.80;13.20
13074;DHT22;6603;47.066;15.396;2022-08-14T09:54:06;25.20;1.00
13074;DHT22;6603;47.066;15.396;2022-08-14T09:56:48;25.40;1.00
13074;DHT22;6603;47.066;15.396;2022-08-14T09:59:15;25.60;1.00
13074;DHT22;6603;47.066;15.396;2022-08-14T10:01:43;25.80;1.00
13074;DHT22;6603;47.066;15.396;2022-08-14T10:04:21;26.00;1.00
13074;DHT22;6603;47.066;15.396;2022-08-14T10:06:49;26.10;1.00
13074;DHT22;6603;47.066;15.396;2022-08-14T10:09:16;26.20;1.00
13074;DHT22;6603;47.066;15.396;2022-08-14T10:11:55;26.30;1.00
13074;DHT22;6603;47.066;15.396;2022-08-14T10:14:23;26.50;1.00
13074;DHT22;6603;47.066;15.396;2022-08-14T10:16:55;26.60;1.00
13074;DHT22;6603;47.066;15.396;2022-08-14T10:19:24;26.50;1.00
13074;DHT22;6603;47.066;15.396;2022-08-14T10:22:06;26.80;1.00
13074;DHT22;6603;47.066;15.396;2022-08-14T10:24:37;26.90;1.00
13074;DHT22;6603;47.066;15.396;2022-08-14T10:29:43;27.30;1.00
13074;DHT22;6603;47.066;15.396;2022-08-14T10:32:12;27.30;1.00
13074;DHT22;6603;47.066;15.396;2022-08-14T10:34:39;27.30;1.00
13074;DHT22;6603;47.066;15.396;2022-08-14T10:37:13;27.50;1.00
13074;DHT22;6603;47.066;15.396;2022-08-14T10:39:44;27.70;1.00
13074;DHT22;6603;47.066;15.396;2022-08-14T10:42:13;27.80;1.00
13074;DHT22;6603;47.066;15.396;2022-08-14T10:44:45;27.80;1.00
13074;DHT22;6603;47.066;15.396;2022-08-14T10:47:15;27.70;1.00
13074;DHT22;6603;47.066;15.396;2022-08-14T10:50:03;27.80;1.00
13074;DHT22;6603;47.066;15.396;2022-08-14T10:52:32;27.80;1.00
13074;DHT22;6603;47.066;15.396;2022-08-14T10:55:14;27.80;1.00
13074;DHT22;6603;47.066;15.396;2022-08-14T10:57:51;28.00;1.00
13074;DHT22;6603;47.066;15.396;2022-08-14T11:00:20;28.00;1.00
13074;DHT22;6603;47.066;15.396;2022-08-14T11:03:05;28.30;1.00
13074;DHT22;6603;47.066;15.396;2022-08-14T11:08:06;28.40;1.00
13074;DHT22;6603;47.066;15.396;2022-08-14T11:13:07;28.00;1.00
13074;DHT22;6603;47.066;15.396;2022-08-14T11:15:35;28.00;1.00
13074;DHT22;6603;47.066;15.396;2022-08-14T11:18:02;28.20;1.00
13074;DHT22;6603;47.066;15.396;2022-08-14T11:20:29;28.20;1.00
13074;DHT22;6603;47.066;15.396;2022-08-14T11:22:58;28.10;1.00
13074;DHT22;6603;47.066;15.396;2022-08-14T11:25:29;28.00;1.00
13074;DHT22;6603;47.066;15.396;2022-08-14T11:28:02;27.90;1.00
13074;DHT22;6603;47.066;15.396;2022-08-14T11:30:30;28.30;1.00
13074;DHT22;6603;47.066;15.396;2022-08-14T11:32:57;28.20;1.00
13074;DHT22;6603;47.066;15.396;2022-08-14T11:35:26;28.50;1.00
13074;DHT22;6603;47.066;15.396;2022-08-14T11:38:00;28.30;1.00
13074;DHT22;6603;47.066;15.396;2022-08-14T11:40:29;28.20;1.00
13074;DHT22;6603;47.066;15.396;2022-08-14T11:42:56;28.40;1.00
13074;DHT22;6603;47.066;15.396;2022-08-14T11:45:24;28.50;1.00
13074;DHT22;6603;47.066;15.396;2022-08-14T11:47:52;28.80;1.00
13074;DHT22;6603;47.066;15.396;2022-08-14T11:50:27;28.50;1.00
13074;DHT22;6603;47.066;15.396;2022-08-14T11:52:56;28.80;1.00
13074;DHT22;6603;47.066;15.396;2022-08-14T11:55:25;29.00;1.00
13074;DHT22;6603;47.066;15.396;2022-08-14T11:58:04;29.20;1.00
13074;DHT22;6603;47.066;15.396;2022-08-14T12:00:31;29.10;1.00
13074;DHT22;6603;47.066;15.396;2022-08-14T12:03:00;29.30;1.00
13074;DHT22;6603;47.066;15.396;2022-08-14T12:05:36;29.10;1.00
13074;DHT22;6603;47.066;15.396;2022-08-14T12:08:05;28.60;1.00
13074;DHT22;6603;47.066;15.396;2022-08-14T12:10:33;28.10;1.00
13074;DHT22;6603;47.066;15.396;2022-08-14T12:13:11;28.10;1.00
13074;DHT22;6603;47.066;15.396;2022-08-14T12:15:39;28.70;1.00
13074;DHT22;6603;47.066;15.396;2022-08-14T12:18:06;28.90;1.00
13074;DHT22;6603;47.066;15.396;2022-08-14T12:20:37;29.40;1.00
13074;DHT22;6603;47.066;15.396;2022-08-14T12:23:06;29.30;1.00
13074;DHT22;6603;47.066;15.396;2022-08-14T12:25:33;29.30;1.00
13074;DHT22;6603;47.066;15.396;2022-08-14T12:28:02;29.50;1.00
13074;DHT22;6603;47.066;15.396;2022-08-14T12:30:41;30.00;1.00
13074;DHT22;6603;47.066;15.396;2022-08-14T12:35:54;29.90;1.00
13074;DHT22;6603;47.066;15.396;2022-08-14T12:38:39;29.30;1.00
13074;DHT22;6603;47.066;15.396;2022-08-14T12:41:19;28.80;1.00
13074;DHT22;6603;47.066;15.396;2022-08-14T12:43:57;28.60;1.00
13074;DHT22;6603;47.066;15.396;2022-08-14T12:46:27;28.70;1.00
13074;DHT22;6603;47.066;15.396;2022-08-14T12:48:54;29.30;1.00
13074;DHT22;6603;47.066;15.396;2022-08-14T12:51:22;29.70;1.00
13074;DHT22;6603;47.066;15.396;2022-08-14T12:53:54;29.90;1.00
13074;DHT22;6603;47.066;15.396;2022-08-14T12:56:21;30.10;1.00
13074;DHT22;6603;47.066;15.396;2022-08-14T12:58:57;29.70;1.00
13074;DHT22;6603;47.066;15.396;2022-08-14T13:01:28;29.80;1.00
13074;DHT22;6603;47.066;15.396;2022-08-14T13:04:06;29.90;1.00
13074;DHT22;6603;47.066;15.396;2022-08-14T13:06:37;30.10;1.00
13074;DHT22;6603;47.066;15.396;2022-08-14T13:09:04;30.40;1.00
13074;DHT22;6603;47.066;15.396;2022-08-14T13:11:42;30.70;1.00
13074;DHT22;6603;47.066;15.396;2022-08-14T13:14:12;30.70;1.00
13074;DHT22;6603;47.066;15.396;2022-08-14T13:16:39;30.60;1.00
13074;DHT22;6603;47.066;15.396;2022-08-14T13:19:12;30.80;1.00
13074;DHT22;6603;47.066;15.396;2022-08-14T13:21:41;30.50;1.00
13074;DHT22;6603;47.066;15.396;2022-08-14T13:24:08;30.50;1.00
13074;DHT22;6603;47.066;15.396;2022-08-14T13:26:45;30.60;1.00
13074;DHT22;6603;47.066;15.396;2022-08-14T13:29:19;31.00;1.00
13074;DHT22;6603;47.066;15.396;2022-08-14T13:31:49;30.80;1.00
13074;DHT22;6603;47.066;15.396;2022-08-14T13:34:19;31.00;1.00
13074;DHT22;6603;47.066;15.396;2022-08-14T13:36:47;30.70;1.00
13074;DHT22;6603;47.066;15.396;2022-08-14T13:39:18;30.90;1.00
13074;DHT22;6603;47.066;15.396;2022-08-14T13:41:45;30.90;1.00
13074;DHT22;6603;47.066;15.396;2022-08-14T13:44:13;31.00;1.00
13074;DHT22;6603;47.066;15.396;2022-08-14T13:46:40;30.80;1.00
13074;DHT22;6603;47.066;15.396;2022-08-14T13:49:09;30.80;1.00
13074;DHT22;6603;47.066;15.396;2022-08-14T13:51:42;30.90;1.00
13074;DHT22;6603;47.066;15.396;2022-08-14T13:54:16;30.70;1.00
13074;DHT22;6603;47.066;15.396;2022-08-14T13:56:48;31.00;1.00
13074;DHT22;6603;47.066;15.396;2022-08-14T13:59:14;31.00;1.00
13074;DHT22;6603;47.066;15.396;2022-08-14T14:01:40;31.00;1.00
13074;DHT22;6603;47.066;15.396;2022-08-14T14:04:13;31.30;1.00
13074;DHT22;6603;47.066;15.396;2022-08-14T14:06:42;31.30;1.00
13074;DHT22;6603;47.066;15.396;2022-08-14T14:09:09;31.60;1.00
13074;DHT22;6603;47.066;15.396;2022-08-14T14:11:37;31.50;1.00
13074;DHT22;6603;47.066;15.396;2022-08-14T14:14:03;31.30;99.90
13074;DHT22;6603;47.066;15.396;2022-08-14T14:16:29;31.20;99.90
13074;DHT22;6603;47.066;15.396;2022-08-14T14:18:55;31.40;99.90
13074;DHT22;6603;47.066;15.396;2022-08-14T14:21:26;31.30;99.90
13074;DHT22;6603;47.066;15.396;2022-08-14T14:23:53;30.50;99.90
13074;DHT22;6603;47.066;15.396;2022-08-14T14:26:20;30.50;99.90
13074;DHT22;6603;47.066;15.396;2022-08-14T14:28:48;30.30;99.90
13074;DHT22;6603;47.066;15.396;2022-08-14T14:31:19;30.70;99.90
13074;DHT22;6603;47.066;15.396;2022-08-14T14:33:52;30.50;99.90
13074;DHT22;6603;47.066;15.396;2022-08-14T14:36:22;31.00;99.90
13074;DHT22;6603;47.066;15.396;2022-08-14T14:39:03;31.30;99.90
13074;DHT22;6603;47.066;15.396;2022-08-14T14:41:31;31.20;99.90
13074;DHT22;6603;47.066;15.396;2022-08-14T14:43:58;30.80;99.90
13074;DHT22;6603;47.066;15.396;2022-08-14T14:46:27;30.30;99.90
13074;DHT22;6603;47.066;15.396;2022-08-14T14:48:59;30.00;99.90
13074;DHT22;6603;47.066;15.396;2022-08-14T14:51:25;29.80;99.90
13074;DHT22;6603;47.066;15.396;2022-08-14T14:53:52;29.70;99.90
13074;DHT22;6603;47.066;15.396;2022-08-14T14:56:19;29.50;99.90
13074;DHT22;6603;47.066;15.396;2022-08-14T14:58:45;29.40;99.90
13074;DHT22;6603;47.066;15.396;2022-08-14T15:01:11;29.20;99.90
13074;DHT22;6603;47.066;15.396;2022-08-14T15:03:42;28.90;99.90
13074;DHT22;6603;47.066;15.396;2022-08-14T15:06:10;28.80;1.00
13074;DHT22;6603;47.066;15.396;2022-08-14T15:08:37;28.80;1.00
13074;DHT22;6603;47.066;15.396;2022-08-14T15:11:03;28.80;1.00
13074;DHT22;6603;47.066;15.396;2022-08-14T15:13:29;28.50;1.00
13074;DHT22;6603;47.066;15.396;2022-08-14T15:15:55;28.70;1.00
13074;DHT22;6603;47.066;15.396;2022-08-14T15:18:22;28.50;1.00
13074;DHT22;6603;47.066;15.396;2022-08-14T15:20:50;28.60;1.00
13074;DHT22;6603;47.066;15.396;2022-08-14T15:23:20;28.40;1.00
13074;DHT22;6603;47.066;15.396;2022-08-14T15:25:47;28.50;1.00
13074;DHT22;6603;47.066;15.396;2022-08-14T15:28:14;28.40;1.00
13074;DHT22;6603;47.066;15.396;2022-08-14T15:30:42;28.30;1.00
13074;DHT22;6603;47.066;15.396;2022-08-14T15:33:09;28.30;1.00
13074;DHT22;6603;47.066;15.396;2022-08-14T15:35:35;28.30;1.00
13074;DHT22;6603;47.066;15.396;2022-08-14T15:38:02;28.30;1.00
13074;DHT22;6603;47.066;15.396;2022-08-14T15:40:35;28.20;1.00
13074;DHT22;6603;47.066;15.396;2022-08-14T15:43:04;28.20;1.00
13074;DHT22;6603;47.066;15.396;2022-08-14T15:45:30;28.30;1.00
13074;DHT22;6603;47.066;15.396;2022-08-14T15:47:56;28.40;1.00
13074;DHT22;6603;47.066;15.396;2022-08-14T15:50:22;28.50;1.00
13074;DHT22;6603;47.066;15.396;2022-08-14T15:52:50;28.70;1.00
13074;DHT22;6603;47.066;15.396;2022-08-14T15:55:16;28.70;1.00
13074;DHT22;6603;47.066;15.396;2022-08-14T15:57:43;28.80;1.00
13074;DHT22;6603;47.066;15.396;2022-08-14T16:00:11;28.70;1.00
13074;DHT22;6603;47.066;15.396;2022-08-14T16:02:56;28.80;1.00
13074;DHT22;6603;47.066;15.396;2022-08-14T16:05:23;28.80;1.00
13074;DHT22;6603;47.066;15.396;2022-08-14T16:07:53;28.70;1.00
13074;DHT22;6603;47.066;15.396;2022-08-14T16:10:21;28.80;1.00